SBOSBO CTA / LICC
Speedbird OnlineSpeedbird Online CTA / LICC

Catania-Fontanarossa Airport
00:47 17.4°C

Location Catania, Italy
Latitude: 37.466801
Longitude: 15.0664
Local Time 00:47 on 26 May 2024
UTC +2 hours (Europe/Rome)
Currency £1 equals EUR 1.17
METAR LICC 252220Z 23003KT CAVOK 17/14 Q1016
TAF TAF LICC 251700Z 2518/2618 VRB05KT 9999 SCT050 BECMG 2609/2611 10013KT
Weather As Of 26 May 2024 00:46
Description Clear sky
Wind 7 km/h from North-West (300°)
Cloud Cover 0%
Precipitation Rain: none, Snow: none
Sunrise 05:43
Sunset 20:10
NOTAM 17 active NOTAM
Rotations During the last 90 days there were
40 flights from LGW
41 flights to LGW
Lounges SAC Lounge, main terminal
Web Airport Website | Wikipedia
Codes IATA: CTA
ICAO: LICC
Altitude 12 Meter / 39 Feet
Distance 1,952 KM / 1,213 Miles
from London.
Runways
RunwayLength (m)Surface
082435Asphalt
262435Asphalt
Radio
TypeDescriptionFrequency
APPAPP119.25
DIRDIRECTOR120.8
GNDGND129.725
TWRTWR118.7
Live ATC



Support Speedbird Online

© 2017-2024 Speedbird Online